sensor_id;sensor_type;location;lat;lon;timestamp;P1;durP1;ratioP1;P2;durP2;ratioP2
68449;SDS011;55434;39.570;2.652;2022-12-29T00:01:49;13.48;;;5.22;;
68449;SDS011;55434;39.570;2.652;2022-12-29T00:04:15;14.90;;;5.68;;
68449;SDS011;55434;39.570;2.652;2022-12-29T00:06:41;12.40;;;5.00;;
68449;SDS011;55434;39.570;2.652;2022-12-29T00:09:07;12.48;;;4.90;;
68449;SDS011;55434;39.570;2.652;2022-12-29T00:11:33;15.48;;;5.10;;
68449;SDS011;55434;39.570;2.652;2022-12-29T00:13:59;12.63;;;5.40;;
68449;SDS011;55434;39.570;2.652;2022-12-29T00:16:44;12.52;;;4.50;;
68449;SDS011;55434;39.570;2.652;2022-12-29T00:19:10;12.57;;;4.70;;
68449;SDS011;55434;39.570;2.652;2022-12-29T00:21:56;9.13;;;3.95;;
68449;SDS011;55434;39.570;2.652;2022-12-29T00:24:42;12.27;;;4.33;;
68449;SDS011;55434;39.570;2.652;2022-12-29T00:27:28;16.60;;;5.13;;
68449;SDS011;55434;39.570;2.652;2022-12-29T00:30:13;14.52;;;4.53;;
68449;SDS011;55434;39.570;2.652;2022-12-29T00:36:19;13.55;;;3.85;;
68449;SDS011;55434;39.570;2.652;2022-12-29T00:38:56;11.23;;;4.30;;
68449;SDS011;55434;39.570;2.652;2022-12-29T00:41:44;13.30;;;3.80;;
68449;SDS011;55434;39.570;2.652;2022-12-29T00:44:29;10.93;;;4.00;;
68449;SDS011;55434;39.570;2.652;2022-12-29T00:46:54;10.57;;;3.40;;
68449;SDS011;55434;39.570;2.652;2022-12-29T00:49:20;10.30;;;3.40;;
68449;SDS011;55434;39.570;2.652;2022-12-29T00:51:56;13.70;;;3.80;;
68449;SDS011;55434;39.570;2.652;2022-12-29T00:54:30;10.93;;;3.30;;
68449;SDS011;55434;39.570;2.652;2022-12-29T00:56:58;13.30;;;3.93;;
68449;SDS011;55434;39.570;2.652;2022-12-29T00:59:24;10.77;;;3.90;;
68449;SDS011;55434;39.570;2.652;2022-12-29T01:01:51;10.77;;;3.42;;
68449;SDS011;55434;39.570;2.652;2022-12-29T01:07:15;10.68;;;3.35;;
68449;SDS011;55434;39.570;2.652;2022-12-29T01:09:42;10.33;;;3.60;;
68449;SDS011;55434;39.570;2.652;2022-12-29T01:12:26;9.93;;;3.55;;
68449;SDS011;55434;39.570;2.652;2022-12-29T01:15:08;9.70;;;3.20;;
68449;SDS011;55434;39.570;2.652;2022-12-29T01:17:37;11.82;;;3.83;;
68449;SDS011;55434;39.570;2.652;2022-12-29T01:20:03;12.60;;;3.40;;
68449;SDS011;55434;39.570;2.652;2022-12-29T01:22:29;11.57;;;3.25;;
68449;SDS011;55434;39.570;2.652;2022-12-29T01:24:55;11.57;;;3.03;;
68449;SDS011;55434;39.570;2.652;2022-12-29T01:27:21;12.10;;;3.50;;
68449;SDS011;55434;39.570;2.652;2022-12-29T01:29:46;12.07;;;3.50;;
68449;SDS011;55434;39.570;2.652;2022-12-29T01:32:12;13.80;;;3.23;;
68449;SDS011;55434;39.570;2.652;2022-12-29T01:34:37;10.15;;;2.65;;
68449;SDS011;55434;39.570;2.652;2022-12-29T01:37:03;8.67;;;3.00;;
68449;SDS011;55434;39.570;2.652;2022-12-29T01:39:29;8.77;;;2.70;;
68449;SDS011;55434;39.570;2.652;2022-12-29T01:41:54;10.33;;;3.60;;
68449;SDS011;55434;39.570;2.652;2022-12-29T01:44:47;8.88;;;2.97;;
68449;SDS011;55434;39.570;2.652;2022-12-29T01:47:28;8.37;;;3.00;;
68449;SDS011;55434;39.570;2.652;2022-12-29T01:49:58;10.85;;;3.13;;
68449;SDS011;55434;39.570;2.652;2022-12-29T01:52:29;12.10;;;3.17;;
68449;SDS011;55434;39.570;2.652;2022-12-29T01:54:58;8.88;;;3.10;;
68449;SDS011;55434;39.570;2.652;2022-12-29T01:57:26;8.77;;;2.88;;
68449;SDS011;55434;39.570;2.652;2022-12-29T02:00:13;7.67;;;3.00;;
68449;SDS011;55434;39.570;2.652;2022-12-29T02:02:46;9.05;;;2.75;;
68449;SDS011;55434;39.570;2.652;2022-12-29T02:08:03;10.95;;;3.10;;
68449;SDS011;55434;39.570;2.652;2022-12-29T02:10:30;12.10;;;2.88;;
68449;SDS011;55434;39.570;2.652;2022-12-29T02:12:58;15.03;;;2.93;;
68449;SDS011;55434;39.570;2.652;2022-12-29T02:24:11;8.13;;;2.63;;
68449;SDS011;55434;39.570;2.652;2022-12-29T02:49:36;9.20;;;2.40;;
68449;SDS011;55434;39.570;2.652;2022-12-29T02:52:20;11.00;;;2.28;;
68449;SDS011;55434;39.570;2.652;2022-12-29T02:54:53;8.07;;;2.10;;
68449;SDS011;55434;39.570;2.652;2022-12-29T02:59:46;10.70;;;2.20;;
68449;SDS011;55434;39.570;2.652;2022-12-29T03:10:51;8.02;;;1.80;;
68449;SDS011;55434;39.570;2.652;2022-12-29T03:16:29;10.30;;;1.93;;
68449;SDS011;55434;39.570;2.652;2022-12-29T03:21:32;11.15;;;2.47;;
68449;SDS011;55434;39.570;2.652;2022-12-29T03:24:22;9.65;;;1.88;;
68449;SDS011;55434;39.570;2.652;2022-12-29T03:26:52;8.50;;;2.20;;
68449;SDS011;55434;39.570;2.652;2022-12-29T03:29:21;10.10;;;2.00;;
68449;SDS011;55434;39.570;2.652;2022-12-29T03:31:48;10.50;;;2.10;;
68449;SDS011;55434;39.570;2.652;2022-12-29T03:34:16;8.13;;;2.00;;
68449;SDS011;55434;39.570;2.652;2022-12-29T03:37:28;9.57;;;1.80;;
68449;SDS011;55434;39.570;2.652;2022-12-29T03:39:39;8.60;;;2.00;;
68449;SDS011;55434;39.570;2.652;2022-12-29T03:42:09;11.20;;;2.30;;
68449;SDS011;55434;39.570;2.652;2022-12-29T03:44:40;12.25;;;2.50;;
68449;SDS011;55434;39.570;2.652;2022-12-29T03:47:07;10.30;;;2.00;;
68449;SDS011;55434;39.570;2.652;2022-12-29T03:49:35;11.38;;;2.20;;
68449;SDS011;55434;39.570;2.652;2022-12-29T03:52:01;10.73;;;1.97;;
68449;SDS011;55434;39.570;2.652;2022-12-29T03:54:27;7.70;;;1.80;;
68449;SDS011;55434;39.570;2.652;2022-12-29T03:56:53;12.07;;;2.07;;
68449;SDS011;55434;39.570;2.652;2022-12-29T03:59:18;7.35;;;1.80;;
68449;SDS011;55434;39.570;2.652;2022-12-29T04:01:44;9.23;;;1.83;;
68449;SDS011;55434;39.570;2.652;2022-12-29T04:04:10;8.73;;;2.05;;
68449;SDS011;55434;39.570;2.652;2022-12-29T04:06:35;8.73;;;1.90;;
68449;SDS011;55434;39.570;2.652;2022-12-29T04:09:01;9.63;;;1.73;;
68449;SDS011;55434;39.570;2.652;2022-12-29T04:11:26;12.88;;;2.20;;
68449;SDS011;55434;39.570;2.652;2022-12-29T04:13:52;13.33;;;2.20;;
68449;SDS011;55434;39.570;2.652;2022-12-29T04:16:18;10.68;;;2.13;;
68449;SDS011;55434;39.570;2.652;2022-12-29T04:18:43;9.17;;;1.90;;
68449;SDS011;55434;39.570;2.652;2022-12-29T04:21:09;8.05;;;1.85;;
68449;SDS011;55434;39.570;2.652;2022-12-29T04:23:36;10.17;;;1.90;;
68449;SDS011;55434;39.570;2.652;2022-12-29T04:26:03;11.87;;;1.87;;
68449;SDS011;55434;39.570;2.652;2022-12-29T04:28:29;9.88;;;1.90;;
68449;SDS011;55434;39.570;2.652;2022-12-29T04:30:55;9.93;;;2.22;;
68449;SDS011;55434;39.570;2.652;2022-12-29T04:33:21;10.27;;;1.67;;
68449;SDS011;55434;39.570;2.652;2022-12-29T04:35:49;9.18;;;2.08;;
68449;SDS011;55434;39.570;2.652;2022-12-29T04:38:15;6.32;;;1.67;;
68449;SDS011;55434;39.570;2.652;2022-12-29T04:40:42;8.90;;;1.95;;
68449;SDS011;55434;39.570;2.652;2022-12-29T04:43:09;8.75;;;2.33;;
68449;SDS011;55434;39.570;2.652;2022-12-29T04:45:35;8.67;;;2.17;;
68449;SDS011;55434;39.570;2.652;2022-12-29T04:48:01;12.93;;;2.30;;
68449;SDS011;55434;39.570;2.652;2022-12-29T04:50:26;8.27;;;2.00;;
68449;SDS011;55434;39.570;2.652;2022-12-29T04:52:52;9.57;;;2.30;;
68449;SDS011;55434;39.570;2.652;2022-12-29T04:55:18;12.63;;;2.20;;
68449;SDS011;55434;39.570;2.652;2022-12-29T04:57:44;12.30;;;2.50;;
68449;SDS011;55434;39.570;2.652;2022-12-29T05:00:10;10.10;;;2.20;;
68449;SDS011;55434;39.570;2.652;2022-12-29T05:02:36;7.97;;;2.03;;
68449;SDS011;55434;39.570;2.652;2022-12-29T05:05:02;8.93;;;2.30;;
68449;SDS011;55434;39.570;2.652;2022-12-29T05:07:28;9.90;;;2.10;;
68449;SDS011;55434;39.570;2.652;2022-12-29T05:09:54;9.13;;;2.15;;
68449;SDS011;55434;39.570;2.652;2022-12-29T05:12:20;10.47;;;2.90;;
68449;SDS011;55434;39.570;2.652;2022-12-29T05:14:45;9.40;;;2.05;;
68449;SDS011;55434;39.570;2.652;2022-12-29T05:17:11;10.67;;;2.70;;
68449;SDS011;55434;39.570;2.652;2022-12-29T05:19:37;10.02;;;2.00;;
68449;SDS011;55434;39.570;2.652;2022-12-29T05:22:03;8.27;;;2.28;;
68449;SDS011;55434;39.570;2.652;2022-12-29T05:24:29;10.90;;;2.30;;
68449;SDS011;55434;39.570;2.652;2022-12-29T05:26:55;11.30;;;2.20;;
68449;SDS011;55434;39.570;2.652;2022-12-29T05:29:21;8.83;;;2.67;;
68449;SDS011;55434;39.570;2.652;2022-12-29T05:31:46;10.32;;;2.35;;
68449;SDS011;55434;39.570;2.652;2022-12-29T05:34:12;8.93;;;2.07;;
68449;SDS011;55434;39.570;2.652;2022-12-29T05:36:38;6.88;;;2.45;;
68449;SDS011;55434;39.570;2.652;2022-12-29T05:39:04;10.97;;;2.17;;
68449;SDS011;55434;39.570;2.652;2022-12-29T05:41:29;8.33;;;2.40;;
68449;SDS011;55434;39.570;2.652;2022-12-29T05:43:55;10.23;;;2.53;;
68449;SDS011;55434;39.570;2.652;2022-12-29T05:46:21;7.73;;;2.37;;
68449;SDS011;55434;39.570;2.652;2022-12-29T05:48:46;8.83;;;2.10;;
68449;SDS011;55434;39.570;2.652;2022-12-29T05:51:12;6.90;;;1.75;;
68449;SDS011;55434;39.570;2.652;2022-12-29T05:53:38;11.30;;;2.33;;
68449;SDS011;55434;39.570;2.652;2022-12-29T05:56:03;7.47;;;2.13;;
68449;SDS011;55434;39.570;2.652;2022-12-29T05:58:29;9.17;;;2.13;;
68449;SDS011;55434;39.570;2.652;2022-12-29T06:00:55;12.27;;;2.28;;
68449;SDS011;55434;39.570;2.652;2022-12-29T06:03:20;8.73;;;2.10;;
68449;SDS011;55434;39.570;2.652;2022-12-29T06:05:46;9.68;;;2.20;;
68449;SDS011;55434;39.570;2.652;2022-12-29T06:08:12;8.80;;;2.20;;
68449;SDS011;55434;39.570;2.652;2022-12-29T06:10:37;11.95;;;2.22;;
68449;SDS011;55434;39.570;2.652;2022-12-29T06:13:03;9.93;;;2.40;;
68449;SDS011;55434;39.570;2.652;2022-12-29T06:15:31;12.05;;;2.10;;
68449;SDS011;55434;39.570;2.652;2022-12-29T06:17:57;11.80;;;2.20;;
68449;SDS011;55434;39.570;2.652;2022-12-29T06:20:23;8.60;;;1.87;;
68449;SDS011;55434;39.570;2.652;2022-12-29T06:22:49;10.02;;;2.47;;
68449;SDS011;55434;39.570;2.652;2022-12-29T06:25:14;11.30;;;2.72;;
68449;SDS011;55434;39.570;2.652;2022-12-29T06:27:41;10.57;;;1.93;;
68449;SDS011;55434;39.570;2.652;2022-12-29T06:30:07;9.27;;;2.10;;
68449;SDS011;55434;39.570;2.652;2022-12-29T06:32:34;10.73;;;2.63;;
68449;SDS011;55434;39.570;2.652;2022-12-29T06:35:00;8.75;;;1.80;;
68449;SDS011;55434;39.570;2.652;2022-12-29T06:37:26;9.60;;;2.00;;
68449;SDS011;55434;39.570;2.652;2022-12-29T06:39:52;9.57;;;2.10;;
68449;SDS011;55434;39.570;2.652;2022-12-29T06:42:18;8.05;;;1.90;;
68449;SDS011;55434;39.570;2.652;2022-12-29T06:44:43;11.23;;;2.30;;
68449;SDS011;55434;39.570;2.652;2022-12-29T06:47:09;15.87;;;1.90;;
68449;SDS011;55434;39.570;2.652;2022-12-29T06:49:35;6.77;;;2.10;;
68449;SDS011;55434;39.570;2.652;2022-12-29T06:52:01;15.43;;;2.65;;
68449;SDS011;55434;39.570;2.652;2022-12-29T06:54:29;10.10;;;2.20;;
68449;SDS011;55434;39.570;2.652;2022-12-29T06:56:56;10.77;;;2.10;;
68449;SDS011;55434;39.570;2.652;2022-12-29T06:59:21;16.80;;;2.40;;
68449;SDS011;55434;39.570;2.652;2022-12-29T07:01:47;14.75;;;2.58;;
68449;SDS011;55434;39.570;2.652;2022-12-29T07:04:13;14.80;;;2.97;;
68449;SDS011;55434;39.570;2.652;2022-12-29T07:06:39;15.10;;;2.30;;
68449;SDS011;55434;39.570;2.652;2022-12-29T07:09:06;13.73;;;3.00;;
68449;SDS011;55434;39.570;2.652;2022-12-29T07:11:32;14.00;;;2.92;;
68449;SDS011;55434;39.570;2.652;2022-12-29T07:13:58;15.63;;;3.08;;
68449;SDS011;55434;39.570;2.652;2022-12-29T07:16:24;16.67;;;3.03;;
68449;SDS011;55434;39.570;2.652;2022-12-29T07:18:50;13.95;;;3.10;;
68449;SDS011;55434;39.570;2.652;2022-12-29T07:21:16;13.70;;;3.63;;
68449;SDS011;55434;39.570;2.652;2022-12-29T07:23:42;12.70;;;3.13;;
68449;SDS011;55434;39.570;2.652;2022-12-29T07:26:09;11.00;;;3.55;;
68449;SDS011;55434;39.570;2.652;2022-12-29T07:28:37;21.25;;;3.80;;
68449;SDS011;55434;39.570;2.652;2022-12-29T07:31:03;13.33;;;3.67;;
68449;SDS011;55434;39.570;2.652;2022-12-29T07:33:30;15.65;;;3.70;;
68449;SDS011;55434;39.570;2.652;2022-12-29T07:35:56;17.30;;;4.32;;
68449;SDS011;55434;39.570;2.652;2022-12-29T07:38:22;14.10;;;3.83;;
68449;SDS011;55434;39.570;2.652;2022-12-29T07:40:48;11.93;;;3.83;;
68449;SDS011;55434;39.570;2.652;2022-12-29T07:43:13;13.43;;;4.07;;
68449;SDS011;55434;39.570;2.652;2022-12-29T07:45:39;15.60;;;3.50;;
68449;SDS011;55434;39.570;2.652;2022-12-29T07:48:05;15.35;;;4.05;;
68449;SDS011;55434;39.570;2.652;2022-12-29T07:50:51;12.48;;;4.13;;
68449;SDS011;55434;39.570;2.652;2022-12-29T07:53:18;13.90;;;4.18;;
68449;SDS011;55434;39.570;2.652;2022-12-29T07:55:43;13.90;;;4.07;;
68449;SDS011;55434;39.570;2.652;2022-12-29T07:58:09;15.80;;;4.32;;
68449;SDS011;55434;39.570;2.652;2022-12-29T08:00:35;14.23;;;4.37;;
68449;SDS011;55434;39.570;2.652;2022-12-29T08:03:01;11.93;;;3.78;;
68449;SDS011;55434;39.570;2.652;2022-12-29T08:05:27;13.43;;;4.10;;
68449;SDS011;55434;39.570;2.652;2022-12-29T08:07:52;16.27;;;3.40;;
68449;SDS011;55434;39.570;2.652;2022-12-29T08:10:18;11.80;;;3.87;;
68449;SDS011;55434;39.570;2.652;2022-12-29T08:12:44;14.68;;;4.00;;
68449;SDS011;55434;39.570;2.652;2022-12-29T08:15:10;15.37;;;4.07;;
68449;SDS011;55434;39.570;2.652;2022-12-29T08:17:37;14.23;;;4.28;;
68449;SDS011;55434;39.570;2.652;2022-12-29T08:20:03;20.45;;;4.78;;
68449;SDS011;55434;39.570;2.652;2022-12-29T08:22:29;20.50;;;4.88;;
68449;SDS011;55434;39.570;2.652;2022-12-29T08:24:55;15.50;;;4.83;;
68449;SDS011;55434;39.570;2.652;2022-12-29T08:27:21;15.57;;;4.82;;
68449;SDS011;55434;39.570;2.652;2022-12-29T08:29:47;17.23;;;5.15;;
68449;SDS011;55434;39.570;2.652;2022-12-29T08:32:13;12.50;;;5.23;;
68449;SDS011;55434;39.570;2.652;2022-12-29T08:34:39;15.60;;;5.30;;
68449;SDS011;55434;39.570;2.652;2022-12-29T08:37:05;17.90;;;4.85;;
68449;SDS011;55434;39.570;2.652;2022-12-29T08:39:31;14.80;;;5.40;;
68449;SDS011;55434;39.570;2.652;2022-12-29T08:41:56;21.33;;;5.47;;
68449;SDS011;55434;39.570;2.652;2022-12-29T08:44:22;19.93;;;6.07;;
68449;SDS011;55434;39.570;2.652;2022-12-29T08:46:48;19.85;;;6.28;;
68449;SDS011;55434;39.570;2.652;2022-12-29T08:49:14;18.00;;;6.20;;
68449;SDS011;55434;39.570;2.652;2022-12-29T08:51:39;25.08;;;6.85;;
68449;SDS011;55434;39.570;2.652;2022-12-29T08:54:05;19.67;;;6.57;;
68449;SDS011;55434;39.570;2.652;2022-12-29T08:56:31;18.27;;;6.13;;
68449;SDS011;55434;39.570;2.652;2022-12-29T08:58:57;23.27;;;6.72;;
68449;SDS011;55434;39.570;2.652;2022-12-29T09:01:23;20.43;;;7.40;;
68449;SDS011;55434;39.570;2.652;2022-12-29T09:03:48;30.45;;;7.32;;
68449;SDS011;55434;39.570;2.652;2022-12-29T09:06:15;29.50;;;7.23;;
68449;SDS011;55434;39.570;2.652;2022-12-29T09:08:42;21.25;;;7.78;;
68449;SDS011;55434;39.570;2.652;2022-12-29T09:13:46;19.33;;;7.22;;
68449;SDS011;55434;39.570;2.652;2022-12-29T09:16:12;25.77;;;8.45;;
68449;SDS011;55434;39.570;2.652;2022-12-29T09:18:41;20.73;;;6.63;;
68449;SDS011;55434;39.570;2.652;2022-12-29T09:21:07;22.88;;;8.27;;
68449;SDS011;55434;39.570;2.652;2022-12-29T09:23:34;19.88;;;6.57;;
68449;SDS011;55434;39.570;2.652;2022-12-29T09:26:19;22.05;;;5.55;;
68449;SDS011;55434;39.570;2.652;2022-12-29T09:28:45;20.83;;;7.28;;
68449;SDS011;55434;39.570;2.652;2022-12-29T09:31:12;19.80;;;6.63;;
68449;SDS011;55434;39.570;2.652;2022-12-29T09:33:38;22.55;;;8.18;;
68449;SDS011;55434;39.570;2.652;2022-12-29T09:36:04;18.65;;;6.45;;
68449;SDS011;55434;39.570;2.652;2022-12-29T09:38:30;20.10;;;7.22;;
68449;SDS011;55434;39.570;2.652;2022-12-29T09:40:58;19.60;;;6.00;;
68449;SDS011;55434;39.570;2.652;2022-12-29T09:46:30;17.25;;;6.57;;
68449;SDS011;55434;39.570;2.652;2022-12-29T09:52:06;17.25;;;5.50;;
68449;SDS011;55434;39.570;2.652;2022-12-29T09:54:51;15.47;;;5.90;;
68449;SDS011;55434;39.570;2.652;2022-12-29T09:57:28;17.75;;;7.13;;
68449;SDS011;55434;39.570;2.652;2022-12-29T10:00:05;20.95;;;8.27;;
68449;SDS011;55434;39.570;2.652;2022-12-29T10:03:06;19.65;;;8.18;;
68449;SDS011;55434;39.570;2.652;2022-12-29T10:05:46;23.35;;;8.45;;
68449;SDS011;55434;39.570;2.652;2022-12-29T10:08:37;17.43;;;5.50;;
68449;SDS011;55434;39.570;2.652;2022-12-29T10:19:20;23.80;;;6.93;;
68449;SDS011;55434;39.570;2.652;2022-12-29T10:24:58;22.23;;;6.00;;
68449;SDS011;55434;39.570;2.652;2022-12-29T10:27:30;21.75;;;5.78;;
68449;SDS011;55434;39.570;2.652;2022-12-29T10:29:58;21.35;;;5.85;;
68449;SDS011;55434;39.570;2.652;2022-12-29T10:34:56;14.30;;;4.73;;
68449;SDS011;55434;39.570;2.652;2022-12-29T10:39:55;12.90;;;4.60;;
68449;SDS011;55434;39.570;2.652;2022-12-29T10:42:34;13.13;;;4.60;;
68449;SDS011;55434;39.570;2.652;2022-12-29T10:45:10;13.35;;;4.65;;
68449;SDS011;55434;39.570;2.652;2022-12-29T10:48:01;15.57;;;4.20;;
68449;SDS011;55434;39.570;2.652;2022-12-29T10:50:30;15.23;;;3.75;;
68449;SDS011;55434;39.570;2.652;2022-12-29T10:53:00;13.05;;;3.40;;
68449;SDS011;55434;39.570;2.652;2022-12-29T10:55:35;11.95;;;2.83;;
68449;SDS011;55434;39.570;2.652;2022-12-29T10:58:07;10.70;;;3.10;;
68449;SDS011;55434;39.570;2.652;2022-12-29T11:00:37;11.17;;;2.97;;
68449;SDS011;55434;39.570;2.652;2022-12-29T11:06:03;12.02;;;3.53;;
68449;SDS011;55434;39.570;2.652;2022-12-29T11:09:01;10.35;;;3.65;;
68449;SDS011;55434;39.570;2.652;2022-12-29T11:11:39;9.25;;;3.50;;
68449;SDS011;55434;39.570;2.652;2022-12-29T11:14:26;10.33;;;3.37;;
68449;SDS011;55434;39.570;2.652;2022-12-29T11:17:03;9.77;;;3.35;;
68449;SDS011;55434;39.570;2.652;2022-12-29T11:19:44;11.00;;;3.25;;
68449;SDS011;55434;39.570;2.652;2022-12-29T11:22:23;10.83;;;3.40;;
68449;SDS011;55434;39.570;2.652;2022-12-29T11:24:51;11.07;;;2.97;;
68449;SDS011;55434;39.570;2.652;2022-12-29T11:27:29;11.07;;;3.70;;
68449;SDS011;55434;39.570;2.652;2022-12-29T11:29:55;13.37;;;3.10;;
68449;SDS011;55434;39.570;2.652;2022-12-29T11:32:25;9.30;;;2.80;;
68449;SDS011;55434;39.570;2.652;2022-12-29T11:34:58;10.80;;;2.85;;
68449;SDS011;55434;39.570;2.652;2022-12-29T11:37:28;12.50;;;3.28;;
68449;SDS011;55434;39.570;2.652;2022-12-29T11:40:05;9.38;;;2.90;;
68449;SDS011;55434;39.570;2.652;2022-12-29T11:43:04;10.38;;;2.63;;
68449;SDS011;55434;39.570;2.652;2022-12-29T11:45:33;8.90;;;2.67;;
68449;SDS011;55434;39.570;2.652;2022-12-29T11:48:09;9.85;;;2.80;;
68449;SDS011;55434;39.570;2.652;2022-12-29T11:50:42;9.13;;;2.80;;
68449;SDS011;55434;39.570;2.652;2022-12-29T11:55:50;6.80;;;2.45;;
68449;SDS011;55434;39.570;2.652;2022-12-29T11:58:43;5.80;;;1.80;;
68449;SDS011;55434;39.570;2.652;2022-12-29T12:04:23;9.52;;;2.60;;
68449;SDS011;55434;39.570;2.652;2022-12-29T12:09:51;9.70;;;2.97;;
68449;SDS011;55434;39.570;2.652;2022-12-29T12:15:04;8.02;;;2.70;;
68449;SDS011;55434;39.570;2.652;2022-12-29T12:17:40;11.02;;;3.22;;
68449;SDS011;55434;39.570;2.652;2022-12-29T12:20:19;6.93;;;2.90;;
68449;SDS011;55434;39.570;2.652;2022-12-29T12:29:36;8.00;;;1.90;;
68449;SDS011;55434;39.570;2.652;2022-12-29T12:32:39;8.07;;;2.42;;
68449;SDS011;55434;39.570;2.652;2022-12-29T12:38:11;16.15;;;3.67;;
68449;SDS011;55434;39.570;2.652;2022-12-29T12:41:06;12.05;;;3.35;;
68449;SDS011;55434;39.570;2.652;2022-12-29T12:52:30;7.85;;;1.85;;
68449;SDS011;55434;39.570;2.652;2022-12-29T12:58:09;9.55;;;1.83;;
68449;SDS011;55434;39.570;2.652;2022-12-29T13:00:32;8.32;;;1.67;;
68449;SDS011;55434;39.570;2.652;2022-12-29T13:03:30;14.48;;;2.75;;
68449;SDS011;55434;39.570;2.652;2022-12-29T13:06:26;9.13;;;1.73;;
68449;SDS011;55434;39.570;2.652;2022-12-29T13:14:57;8.63;;;2.08;;
68449;SDS011;55434;39.570;2.652;2022-12-29T13:20:36;8.07;;;2.40;;
68449;SDS011;55434;39.570;2.652;2022-12-29T13:23:34;7.63;;;1.60;;
68449;SDS011;55434;39.570;2.652;2022-12-29T13:28:59;9.23;;;2.38;;
68449;SDS011;55434;39.570;2.652;2022-12-29T13:37:20;8.93;;;1.95;;
68449;SDS011;55434;39.570;2.652;2022-12-29T13:39:51;11.13;;;2.40;;
68449;SDS011;55434;39.570;2.652;2022-12-29T13:42:20;7.28;;;1.88;;
68449;SDS011;55434;39.570;2.652;2022-12-29T13:44:51;8.50;;;1.83;;
68449;SDS011;55434;39.570;2.652;2022-12-29T13:47:45;11.77;;;1.40;;
68449;SDS011;55434;39.570;2.652;2022-12-29T13:50:23;7.72;;;1.35;;
68449;SDS011;55434;39.570;2.652;2022-12-29T13:52:55;8.55;;;1.30;;
68449;SDS011;55434;39.570;2.652;2022-12-29T13:55:48;9.38;;;1.90;;
68449;SDS011;55434;39.570;2.652;2022-12-29T13:59:00;7.53;;;1.52;;
68449;SDS011;55434;39.570;2.652;2022-12-29T14:04:02;9.15;;;1.20;;
68449;SDS011;55434;39.570;2.652;2022-12-29T14:06:34;8.85;;;1.50;;
68449;SDS011;55434;39.570;2.652;2022-12-29T14:09:06;14.82;;;5.15;;
68449;SDS011;55434;39.570;2.652;2022-12-29T14:12:00;12.55;;;2.90;;
68449;SDS011;55434;39.570;2.652;2022-12-29T14:14:27;8.40;;;1.75;;
68449;SDS011;55434;39.570;2.652;2022-12-29T14:16:56;8.27;;;1.65;;
68449;SDS011;55434;39.570;2.652;2022-12-29T14:19:36;6.25;;;1.35;;
68449;SDS011;55434;39.570;2.652;2022-12-29T14:22:06;6.90;;;1.38;;
68449;SDS011;55434;39.570;2.652;2022-12-29T14:27:22;11.15;;;2.30;;
68449;SDS011;55434;39.570;2.652;2022-12-29T14:29:50;7.88;;;2.10;;
68449;SDS011;55434;39.570;2.652;2022-12-29T14:35:00;11.80;;;2.75;;
68449;SDS011;55434;39.570;2.652;2022-12-29T14:38:12;8.38;;;0.88;;
68449;SDS011;55434;39.570;2.652;2022-12-29T14:40:48;5.75;;;1.40;;
68449;SDS011;55434;39.570;2.652;2022-12-29T14:43:24;8.70;;;1.80;;
68449;SDS011;55434;39.570;2.652;2022-12-29T14:45:56;5.82;;;1.38;;
68449;SDS011;55434;39.570;2.652;2022-12-29T14:50:58;11.83;;;2.77;;
68449;SDS011;55434;39.570;2.652;2022-12-29T14:53:42;13.35;;;1.85;;
68449;SDS011;55434;39.570;2.652;2022-12-29T14:56:13;9.50;;;1.13;;
68449;SDS011;55434;39.570;2.652;2022-12-29T14:58:49;8.23;;;1.17;;
68449;SDS011;55434;39.570;2.652;2022-12-29T15:01:26;7.85;;;1.45;;
68449;SDS011;55434;39.570;2.652;2022-12-29T15:03:58;9.60;;;1.67;;
68449;SDS011;55434;39.570;2.652;2022-12-29T15:06:29;6.60;;;1.30;;
68449;SDS011;55434;39.570;2.652;2022-12-29T15:09:40;11.95;;;1.75;;
68449;SDS011;55434;39.570;2.652;2022-12-29T15:14:58;7.10;;;1.45;;
68449;SDS011;55434;39.570;2.652;2022-12-29T15:17:29;10.93;;;1.70;;
68449;SDS011;55434;39.570;2.652;2022-12-29T15:22:55;8.35;;;1.33;;
68449;SDS011;55434;39.570;2.652;2022-12-29T15:25:29;10.02;;;1.90;;
68449;SDS011;55434;39.570;2.652;2022-12-29T15:28:00;9.73;;;1.90;;
68449;SDS011;55434;39.570;2.652;2022-12-29T15:30:32;7.47;;;1.13;;
68449;SDS011;55434;39.570;2.652;2022-12-29T15:33:01;7.72;;;1.30;;
68449;SDS011;55434;39.570;2.652;2022-12-29T15:35:33;7.82;;;1.27;;
68449;SDS011;55434;39.570;2.652;2022-12-29T15:38:01;6.95;;;1.10;;
68449;SDS011;55434;39.570;2.652;2022-12-29T15:40:48;7.47;;;1.17;;
68449;SDS011;55434;39.570;2.652;2022-12-29T15:46:18;10.68;;;1.35;;
68449;SDS011;55434;39.570;2.652;2022-12-29T15:48:45;8.68;;;1.05;;
68449;SDS011;55434;39.570;2.652;2022-12-29T15:51:25;8.75;;;1.27;;
68449;SDS011;55434;39.570;2.652;2022-12-29T15:54:00;15.07;;;1.38;;
68449;SDS011;55434;39.570;2.652;2022-12-29T15:56:29;8.93;;;1.30;;
68449;SDS011;55434;39.570;2.652;2022-12-29T15:58:56;9.45;;;1.45;;
68449;SDS011;55434;39.570;2.652;2022-12-29T16:01:26;6.57;;;1.33;;
68449;SDS011;55434;39.570;2.652;2022-12-29T16:04:00;11.50;;;1.20;;
68449;SDS011;55434;39.570;2.652;2022-12-29T16:06:37;10.02;;;1.73;;
68449;SDS011;55434;39.570;2.652;2022-12-29T16:11:45;7.85;;;1.17;;
68449;SDS011;55434;39.570;2.652;2022-12-29T16:17:09;14.45;;;2.40;;
68449;SDS011;55434;39.570;2.652;2022-12-29T16:19:51;7.10;;;1.08;;
68449;SDS011;55434;39.570;2.652;2022-12-29T16:28:01;9.38;;;1.65;;
68449;SDS011;55434;39.570;2.652;2022-12-29T16:30:42;11.88;;;1.88;;
68449;SDS011;55434;39.570;2.652;2022-12-29T16:36:39;9.80;;;1.53;;
68449;SDS011;55434;39.570;2.652;2022-12-29T16:39:29;16.65;;;1.85;;
68449;SDS011;55434;39.570;2.652;2022-12-29T16:42:32;14.10;;;2.20;;
68449;SDS011;55434;39.570;2.652;2022-12-29T16:50:34;12.23;;;1.93;;
68449;SDS011;55434;39.570;2.652;2022-12-29T16:53:06;10.82;;;1.90;;
68449;SDS011;55434;39.570;2.652;2022-12-29T16:55:47;13.70;;;2.58;;
68449;SDS011;55434;39.570;2.652;2022-12-29T16:58:19;13.90;;;2.47;;
68449;SDS011;55434;39.570;2.652;2022-12-29T17:01:08;16.48;;;2.92;;
68449;SDS011;55434;39.570;2.652;2022-12-29T17:03:43;11.33;;;2.27;;
68449;SDS011;55434;39.570;2.652;2022-12-29T17:06:18;14.82;;;2.42;;
68449;SDS011;55434;39.570;2.652;2022-12-29T17:08:45;13.35;;;1.75;;
68449;SDS011;55434;39.570;2.652;2022-12-29T17:11:31;14.32;;;1.40;;
68449;SDS011;55434;39.570;2.652;2022-12-29T17:17:38;9.43;;;1.40;;
68449;SDS011;55434;39.570;2.652;2022-12-29T17:20:23;9.07;;;1.30;;
68449;SDS011;55434;39.570;2.652;2022-12-29T17:22:52;7.57;;;2.05;;
68449;SDS011;55434;39.570;2.652;2022-12-29T17:25:23;9.35;;;1.90;;
68449;SDS011;55434;39.570;2.652;2022-12-29T17:30:27;7.27;;;1.50;;
68449;SDS011;55434;39.570;2.652;2022-12-29T17:33:00;7.53;;;1.63;;
68449;SDS011;55434;39.570;2.652;2022-12-29T17:38:33;9.18;;;1.58;;
68449;SDS011;55434;39.570;2.652;2022-12-29T17:41:00;14.88;;;3.08;;
68449;SDS011;55434;39.570;2.652;2022-12-29T17:43:28;11.90;;;2.50;;
68449;SDS011;55434;39.570;2.652;2022-12-29T17:45:55;10.27;;;2.65;;
68449;SDS011;55434;39.570;2.652;2022-12-29T17:48:26;14.20;;;2.30;;
68449;SDS011;55434;39.570;2.652;2022-12-29T17:51:14;10.48;;;2.13;;
68449;SDS011;55434;39.570;2.652;2022-12-29T17:53:47;13.60;;;2.17;;
68449;SDS011;55434;39.570;2.652;2022-12-29T17:56:46;14.85;;;2.00;;
68449;SDS011;55434;39.570;2.652;2022-12-29T17:59:13;12.05;;;2.25;;
68449;SDS011;55434;39.570;2.652;2022-12-29T18:01:39;15.75;;;2.63;;
68449;SDS011;55434;39.570;2.652;2022-12-29T18:04:06;15.73;;;2.42;;
68449;SDS011;55434;39.570;2.652;2022-12-29T18:06:36;11.77;;;1.90;;
68449;SDS011;55434;39.570;2.652;2022-12-29T18:09:02;11.20;;;1.65;;